Time;durP1;ratioP1;P1;durP2;ratioP2;P2;SDS_P1;SDS_P2;PMS_P1;PMS_P2;Temp;Humidity;BMP_temperature;BMP_pressure;BME280_temperature;BME280_humidity;BME280_pressure;Samples;Min_cycle;Max_cycle;Signal;HPM_P1;HPM_P2
2022/05/21 00:02:02;;;;;;;13.27;8.15;;;;;;;;;;5052630;28;20445;-60
2022/05/21 00:04:28;;;;;;;15.00;9.57;;;;;;;;;;5051880;28;20102;-60
2022/05/21 00:06:55;;;;;;;17.92;9.07;;;;;;;;;;5051699;28;20036;-60
2022/05/21 00:09:21;;;;;;;19.52;10.95;;;;;;;;;;5053424;28;20450;-60
2022/05/21 00:11:47;;;;;;;15.18;10.32;;;;;;;;;;5052555;28;20040;-60
2022/05/21 00:14:13;;;;;;;17.15;10.40;;;;;;;;;;5034788;28;20048;-60
2022/05/21 00:16:39;;;;;;;19.08;10.77;;;;;;;;;;5051645;28;20029;-60
2022/05/21 00:19:05;;;;;;;22.13;11.05;;;;;;;;;;5054109;28;20040;-60
2022/05/21 00:21:31;;;;;;;19.30;11.63;;;;;;;;;;5052377;28;20037;-60
2022/05/21 00:23:57;;;;;;;19.08;12.27;;;;;;;;;;5055472;28;20040;-59
2022/05/21 00:26:25;;;;;;;19.75;11.35;;;;;;;;;;5048742;28;20129;-60
2022/05/21 00:28:51;;;;;;;22.80;12.82;;;;;;;;;;5055677;28;20111;-60
2022/05/21 00:31:18;;;;;;;19.23;12.63;;;;;;;;;;5049583;28;20041;-60
2022/05/21 00:33:45;;;;;;;20.10;12.18;;;;;;;;;;5050860;28;20033;-60
2022/05/21 00:36:12;;;;;;;18.95;12.23;;;;;;;;;;5049601;28;20033;-60
2022/05/21 00:38:39;;;;;;;19.67;12.98;;;;;;;;;;5048023;28;20037;-60
2022/05/21 00:41:06;;;;;;;19.52;11.63;;;;;;;;;;5051961;28;20091;-60
2022/05/21 00:43:46;;;;;;;20.95;12.95;;;;;;;;;;5052638;28;20072;-60
2022/05/21 00:46:16;;;;;;;20.27;13.43;;;;;;;;;;5045391;28;20070;-60
2022/05/21 00:48:43;;;;;;;22.35;12.05;;;;;;;;;;5047937;28;20044;-60
2022/05/21 00:51:12;;;;;;;22.52;13.68;;;;;;;;;;5051484;28;20032;-60
2022/05/21 00:53:38;;;;;;;21.13;13.45;;;;;;;;;;5052141;28;20071;-60
2022/05/21 00:56:04;;;;;;;21.48;12.48;;;;;;;;;;5049434;28;20048;-60
2022/05/21 01:01:17;;;;;;;20.00;13.18;;;;;;;;;;5051084;28;20033;-60
2022/05/21 01:03:44;;;;;;;25.02;13.73;;;;;;;;;;5048847;28;20120;-60
2022/05/21 01:06:11;;;;;;;21.50;14.05;;;;;;;;;;5048450;28;20075;-60
2022/05/21 01:08:38;;;;;;;22.92;14.48;;;;;;;;;;5055164;28;20048;-60
2022/05/21 01:11:06;;;;;;;26.58;16.23;;;;;;;;;;5052300;28;20052;-60
2022/05/21 01:13:34;;;;;;;27.30;16.58;;;;;;;;;;5051281;28;20446;-60
2022/05/21 01:16:00;;;;;;;27.88;16.88;;;;;;;;;;5050125;28;20037;-60
2022/05/21 01:18:26;;;;;;;26.63;16.88;;;;;;;;;;5047822;28;20449;-60
2022/05/21 01:20:57;;;;;;;29.83;17.08;;;;;;;;;;5049642;28;20603;-60
2022/05/21 01:23:23;;;;;;;32.67;17.90;;;;;;;;;;5033842;28;20041;-60
2022/05/21 01:25:50;;;;;;;34.45;19.02;;;;;;;;;;5049681;28;20175;-60
2022/05/21 01:28:18;;;;;;;33.17;18.67;;;;;;;;;;5050801;28;20045;-60
2022/05/21 01:30:48;;;;;;;32.45;20.17;;;;;;;;;;5051169;28;20037;-60
2022/05/21 01:33:15;;;;;;;31.92;20.48;;;;;;;;;;5051985;28;20383;-60
2022/05/21 01:35:42;;;;;;;34.03;19.52;;;;;;;;;;5049910;28;20075;-60
2022/05/21 01:38:09;;;;;;;36.13;20.67;;;;;;;;;;5048364;28;20067;-60
2022/05/21 01:40:35;;;;;;;36.72;20.50;;;;;;;;;;5051298;28;20033;-60
2022/05/21 01:45:45;;;;;;;37.70;21.67;;;;;;;;;;5048622;28;20120;-60
2022/05/21 01:48:17;;;;;;;34.65;21.13;;;;;;;;;;5049979;28;20248;-60
2022/05/21 01:50:43;;;;;;;;;;;;;;;;;;5050811;28;20072;-60
2022/05/21 01:53:10;;;;;;;34.20;21.23;;;;;;;;;;5051750;28;19948;-60
2022/05/21 01:55:36;;;;;;;37.83;21.50;;;;;;;;;;5028620;28;20406;-59
2022/05/21 01:58:02;;;;;;;35.60;23.10;;;;;;;;;;5053051;28;20041;-60
2022/05/21 02:00:28;;;;;;;40.97;23.52;;;;;;;;;;5046046;28;20384;-60
2022/05/21 02:02:54;;;;;;;39.38;22.95;;;;;;;;;;5043515;28;20082;-60
2022/05/21 02:05:20;;;;;;;45.35;24.50;;;;;;;;;;5049043;28;20044;-60
2022/05/21 02:07:46;;;;;;;40.83;24.95;;;;;;;;;;5049348;28;20494;-60
2022/05/21 02:10:12;;;;;;;40.42;24.83;;;;;;;;;;5048463;28;20033;-60
2022/05/21 02:12:39;;;;;;;40.33;25.27;;;;;;;;;;5049921;28;20089;-60
2022/05/21 02:15:05;;;;;;;41.22;25.60;;;;;;;;;;5049454;28;20040;-60
2022/05/21 02:17:31;;;;;;;37.90;24.63;;;;;;;;;;5055338;28;20037;-60
2022/05/21 02:19:57;;;;;;;43.42;25.58;;;;;;;;;;5050025;28;20048;-61
2022/05/21 02:22:23;;;;;;;44.58;26.95;;;;;;;;;;5049201;28;20633;-61
2022/05/21 02:24:49;;;;;;;38.90;25.55;;;;;;;;;;5050444;28;20080;-61
2022/05/21 02:27:15;;;;;;;46.47;26.77;;;;;;;;;;5050441;28;20033;-61
2022/05/21 02:29:42;;;;;;;44.70;26.48;;;;;;;;;;5051085;28;20033;-61
2022/05/21 02:32:09;;;;;;;42.30;26.35;;;;;;;;;;5049276;28;20517;-60
2022/05/21 02:34:35;;;;;;;45.58;27.23;;;;;;;;;;5053885;28;20044;-60
2022/05/21 02:39:45;;;;;;;45.95;26.85;;;;;;;;;;5045970;28;20041;-61
2022/05/21 02:44:57;;;;;;;40.30;25.42;;;;;;;;;;5051043;28;20613;-60
2022/05/21 02:47:23;;;;;;;45.33;27.88;;;;;;;;;;5049900;28;20064;-61
2022/05/21 02:49:49;;;;;;;46.67;27.33;;;;;;;;;;5049442;28;20048;-61
2022/05/21 02:52:15;;;;;;;40.08;25.70;;;;;;;;;;5047095;28;20059;-61
2022/05/21 02:54:41;;;;;;;41.78;25.88;;;;;;;;;;5050857;28;20070;-60
2022/05/21 02:57:11;;;;;;;42.85;25.20;;;;;;;;;;5049670;28;20033;-60
2022/05/21 02:59:38;;;;;;;39.47;25.67;;;;;;;;;;5048447;28;20041;-60
2022/05/21 03:02:04;;;;;;;39.17;24.27;;;;;;;;;;5049592;28;20123;-61
2022/05/21 03:04:30;;;;;;;41.00;24.65;;;;;;;;;;5044472;28;20506;-61
2022/05/21 03:06:56;;;;;;;36.22;22.10;;;;;;;;;;5047680;28;20134;-61
2022/05/21 03:12:07;;;;;;;41.72;24.23;;;;;;;;;;5046182;28;20040;-61
2022/05/21 03:14:33;;;;;;;35.00;20.90;;;;;;;;;;5048300;28;20040;-60
2022/05/21 03:16:59;;;;;;;35.67;22.45;;;;;;;;;;5048042;28;20049;-60
2022/05/21 03:19:29;;;;;;;36.03;22.38;;;;;;;;;;5048908;28;20048;-60
2022/05/21 03:21:55;;;;;;;35.30;23.05;;;;;;;;;;5049358;28;20064;-61
2022/05/21 03:24:21;;;;;;;35.30;22.75;;;;;;;;;;5050428;28;20037;-61
2022/05/21 03:26:47;;;;;;;35.40;22.83;;;;;;;;;;5036975;22;20053;-63
2022/05/21 03:29:13;;;;;;;35.30;22.05;;;;;;;;;;5010063;28;20117;-63
2022/05/21 03:31:39;;;;;;;34.97;22.30;;;;;;;;;;5009749;28;20404;-63
2022/05/21 03:34:05;;;;;;;38.45;21.75;;;;;;;;;;5005653;28;20044;-63
2022/05/21 03:36:32;;;;;;;38.40;21.33;;;;;;;;;;5010282;28;20042;-63
2022/05/21 03:38:58;;;;;;;34.95;20.48;;;;;;;;;;5010847;28;20091;-63
2022/05/21 03:41:25;;;;;;;34.30;19.52;;;;;;;;;;5008855;28;20041;-63
2022/05/21 03:43:52;;;;;;;32.58;18.95;;;;;;;;;;5008857;28;20045;-63
2022/05/21 03:46:18;;;;;;;32.75;18.38;;;;;;;;;;5015324;28;20049;-63
2022/05/21 03:48:44;;;;;;;31.73;18.67;;;;;;;;;;5008926;28;20125;-63
2022/05/21 03:51:10;;;;;;;29.02;17.42;;;;;;;;;;5013904;28;20129;-63
2022/05/21 03:53:36;;;;;;;35.50;18.63;;;;;;;;;;5012293;28;20412;-63
2022/05/21 03:56:02;;;;;;;35.33;18.20;;;;;;;;;;5013611;28;20038;-63
2022/05/21 03:58:29;;;;;;;39.30;16.67;;;;;;;;;;5012350;28;20048;-63
2022/05/21 04:00:55;;;;;;;31.60;17.50;;;;;;;;;;5008362;28;20115;-63
2022/05/21 04:03:21;;;;;;;32.78;16.20;;;;;;;;;;5011133;28;20050;-63
2022/05/21 04:05:47;;;;;;;27.27;15.05;;;;;;;;;;5020930;28;20100;-62
2022/05/21 04:08:13;;;;;;;28.42;15.68;;;;;;;;;;5011403;28;20033;-63
2022/05/21 04:10:39;;;;;;;31.50;15.23;;;;;;;;;;5011698;28;20038;-63
2022/05/21 04:13:05;;;;;;;30.95;15.05;;;;;;;;;;5015140;28;20046;-63
2022/05/21 04:15:31;;;;;;;26.63;14.63;;;;;;;;;;5012637;28;20125;-63
2022/05/21 04:17:57;;;;;;;28.17;14.23;;;;;;;;;;5012711;28;20056;-63
2022/05/21 04:20:24;;;;;;;25.95;14.05;;;;;;;;;;5013310;28;20029;-63
2022/05/21 04:22:50;;;;;;;32.20;14.93;;;;;;;;;;5016983;28;20041;-63
2022/05/21 04:25:16;;;;;;;25.63;13.32;;;;;;;;;;5016666;28;20040;-63
2022/05/21 04:27:42;;;;;;;28.23;14.05;;;;;;;;;;5011795;28;20037;-63
2022/05/21 04:30:10;;;;;;;26.88;13.15;;;;;;;;;;5014887;28;20483;-63
2022/05/21 04:32:36;;;;;;;24.23;12.65;;;;;;;;;;5013394;28;20057;-63
2022/05/21 04:35:03;;;;;;;28.27;13.27;;;;;;;;;;5020529;28;20038;-63
2022/05/21 04:37:29;;;;;;;25.92;14.27;;;;;;;;;;5010320;28;20492;-63
2022/05/21 04:39:55;;;;;;;21.83;12.30;;;;;;;;;;5011784;28;20049;-63
2022/05/21 04:42:21;;;;;;;28.63;12.55;;;;;;;;;;5011968;28;20042;-63
2022/05/21 04:44:47;;;;;;;21.40;12.73;;;;;;;;;;5011766;28;20052;-63
2022/05/21 04:47:13;;;;;;;28.58;13.40;;;;;;;;;;5014092;28;20064;-63
2022/05/21 04:49:39;;;;;;;23.67;12.52;;;;;;;;;;5010964;28;20502;-63
2022/05/21 04:52:05;;;;;;;24.25;12.38;;;;;;;;;;5011271;28;20041;-63
2022/05/21 04:54:31;;;;;;;23.85;12.20;;;;;;;;;;5013405;28;20124;-63
2022/05/21 04:56:57;;;;;;;25.15;11.27;;;;;;;;;;5011140;28;20042;-63
2022/05/21 04:59:23;;;;;;;27.45;10.80;;;;;;;;;;5010228;28;20057;-63
2022/05/21 05:01:49;;;;;;;25.70;10.27;;;;;;;;;;5011370;28;20036;-63
2022/05/21 05:04:15;;;;;;;22.30;10.52;;;;;;;;;;5012412;28;20550;-63
2022/05/21 05:06:41;;;;;;;23.23;9.68;;;;;;;;;;5015042;28;20044;-63
2022/05/21 05:09:08;;;;;;;20.98;9.13;;;;;;;;;;5011320;28;20041;-63
2022/05/21 05:11:34;;;;;;;20.98;9.35;;;;;;;;;;5014515;28;20114;-63
2022/05/21 05:14:00;;;;;;;23.05;8.60;;;;;;;;;;5013008;28;20044;-63
2022/05/21 05:16:27;;;;;;;19.60;8.65;;;;;;;;;;5012669;28;20034;-63
2022/05/21 05:18:53;;;;;;;22.50;8.18;;;;;;;;;;5010264;28;20084;-62
2022/05/21 05:21:19;;;;;;;20.58;8.30;;;;;;;;;;5013582;28;20104;-63
2022/05/21 05:23:45;;;;;;;18.20;6.15;;;;;;;;;;5017013;28;20041;-63
2022/05/21 05:26:11;;;;;;;14.02;5.22;;;;;;;;;;5010822;28;20195;-63
2022/05/21 05:28:37;;;;;;;20.17;5.10;;;;;;;;;;5010910;28;20044;-63
2022/05/21 05:31:03;;;;;;;15.63;4.68;;;;;;;;;;5011969;28;20044;-63
2022/05/21 05:33:30;;;;;;;17.58;4.40;;;;;;;;;;5012383;28;20480;-63
2022/05/21 05:35:56;;;;;;;14.13;3.88;;;;;;;;;;5005880;28;20042;-62
2022/05/21 05:38:22;;;;;;;12.82;3.92;;;;;;;;;;5011757;28;20046;-63
2022/05/21 05:40:50;;;;;;;11.32;3.65;;;;;;;;;;5011604;28;20553;-63
2022/05/21 05:43:17;;;;;;;12.85;3.90;;;;;;;;;;5007334;28;20042;-63
2022/05/21 05:45:43;;;;;;;14.48;3.42;;;;;;;;;;5006529;28;20116;-63
2022/05/21 05:48:09;;;;;;;14.30;3.35;;;;;;;;;;5008920;28;20536;-63
2022/05/21 05:50:36;;;;;;;14.82;3.95;;;;;;;;;;5013178;28;20033;-63
2022/05/21 05:53:03;;;;;;;14.18;3.72;;;;;;;;;;5010175;28;20125;-63
2022/05/21 05:55:30;;;;;;;15.38;3.40;;;;;;;;;;5007802;28;20080;-63
2022/05/21 05:57:56;;;;;;;16.00;3.88;;;;;;;;;;5006023;28;20053;-64
2022/05/21 06:00:22;;;;;;;12.88;3.22;;;;;;;;;;5011992;28;20061;-63
2022/05/21 06:03:03;;;;;;;14.32;3.33;;;;;;;;;;5018293;28;20045;-63
2022/05/21 06:05:31;;;;;;;19.17;3.75;;;;;;;;;;5006456;28;20423;-63
2022/05/21 06:08:01;;;;;;;14.73;3.30;;;;;;;;;;5002745;28;20153;-63
2022/05/21 06:10:32;;;;;;;17.65;4.03;;;;;;;;;;5013129;28;20142;-63
2022/05/21 06:12:58;;;;;;;9.73;2.83;;;;;;;;;;5013088;28;20137;-63
2022/05/21 06:15:25;;;;;;;11.52;3.00;;;;;;;;;;5007851;28;20049;-63
2022/05/21 06:17:52;;;;;;;15.85;3.30;;;;;;;;;;5007799;28;20041;-63
2022/05/21 06:20:19;;;;;;;9.55;2.92;;;;;;;;;;5009410;28;20037;-63
2022/05/21 06:22:45;;;;;;;10.27;3.17;;;;;;;;;;5000197;28;20109;-63
2022/05/21 06:25:12;;;;;;;15.13;3.70;;;;;;;;;;5006885;28;20048;-62
2022/05/21 06:27:38;;;;;;;12.50;3.13;;;;;;;;;;5003889;28;20080;-63
2022/05/21 06:30:04;;;;;;;13.32;3.67;;;;;;;;;;5013257;28;20050;-63
2022/05/21 06:32:30;;;;;;;14.15;2.92;;;;;;;;;;5008383;28;20044;-63
2022/05/21 06:34:57;;;;;;;15.85;3.33;;;;;;;;;;5010091;28;20041;-63
2022/05/21 06:37:23;;;;;;;14.73;3.30;;;;;;;;;;5011038;28;20088;-64
2022/05/21 06:39:49;;;;;;;14.00;3.60;;;;;;;;;;5012083;28;20084;-63
2022/05/21 06:42:15;;;;;;;12.95;3.30;;;;;;;;;;5010200;28;20045;-63
2022/05/21 06:44:42;;;;;;;13.48;3.50;;;;;;;;;;5017823;28;20827;-64
2022/05/21 06:47:08;;;;;;;12.98;3.10;;;;;;;;;;5018360;28;20037;-63
2022/05/21 06:49:34;;;;;;;14.60;3.60;;;;;;;;;;5010451;28;20062;-63
2022/05/21 06:52:00;;;;;;;9.07;2.92;;;;;;;;;;5010390;28;20490;-64
2022/05/21 06:54:27;;;;;;;12.02;3.03;;;;;;;;;;5010254;28;20084;-63
2022/05/21 06:56:53;;;;;;;11.23;3.03;;;;;;;;;;5009536;28;20057;-64
2022/05/21 06:59:19;;;;;;;8.50;2.70;;;;;;;;;;5001257;28;20038;-64
2022/05/21 07:01:45;;;;;;;9.75;2.80;;;;;;;;;;5014288;28;20399;-64
2022/05/21 07:04:13;;;;;;;13.32;3.38;;;;;;;;;;5007858;28;20049;-63
2022/05/21 07:09:24;;;;;;;8.40;3.20;;;;;;;;;;5007840;28;20041;-64
2022/05/21 07:11:51;;;;;;;10.05;2.88;;;;;;;;;;5011084;28;20646;-63
2022/05/21 07:14:17;;;;;;;11.27;3.00;;;;;;;;;;5010407;28;20045;-63
2022/05/21 07:16:43;;;;;;;11.48;3.00;;;;;;;;;;5006618;28;20051;-63
2022/05/21 07:19:09;;;;;;;9.18;3.30;;;;;;;;;;5008516;28;20046;-63
2022/05/21 07:21:35;;;;;;;10.70;2.80;;;;;;;;;;5015100;28;20088;-64
2022/05/21 07:24:01;;;;;;;15.02;2.92;;;;;;;;;;5010913;28;20437;-64
2022/05/21 07:26:28;;;;;;;8.88;2.95;;;;;;;;;;5010314;28;20049;-63
2022/05/21 07:28:54;;;;;;;12.15;2.90;;;;;;;;;;5017571;28;20102;-64
2022/05/21 07:31:20;;;;;;;11.82;2.25;;;;;;;;;;5014465;28;20057;-64
2022/05/21 07:33:46;;;;;;;9.60;3.10;;;;;;;;;;5013477;28;20044;-64
2022/05/21 07:36:12;;;;;;;10.63;3.10;;;;;;;;;;5012468;28;20045;-64
2022/05/21 07:38:38;;;;;;;8.43;2.75;;;;;;;;;;5006156;28;20041;-64
2022/05/21 07:41:04;;;;;;;12.80;2.70;;;;;;;;;;5010638;28;20034;-64
2022/05/21 07:43:31;;;;;;;15.43;2.60;;;;;;;;;;5012727;28;20037;-64
2022/05/21 07:45:57;;;;;;;10.02;2.55;;;;;;;;;;5014601;28;20042;-64
2022/05/21 07:48:24;;;;;;;10.55;2.30;;;;;;;;;;5010119;28;20037;-64
2022/05/21 07:50:55;;;;;;;7.63;2.30;;;;;;;;;;5010866;28;20048;-64
2022/05/21 07:53:22;;;;;;;10.30;2.30;;;;;;;;;;5007946;28;20042;-64
2022/05/21 07:55:50;;;;;;;7.03;2.20;;;;;;;;;;5003965;28;20041;-64
2022/05/21 07:58:17;;;;;;;10.15;2.60;;;;;;;;;;5013110;28;20053;-64
2022/05/21 08:00:43;;;;;;;10.10;2.38;;;;;;;;;;5007821;28;20041;-63
2022/05/21 08:03:09;;;;;;;7.55;2.47;;;;;;;;;;5010981;28;20508;-63
2022/05/21 08:05:36;;;;;;;6.32;2.28;;;;;;;;;;5015054;28;20050;-63
2022/05/21 08:08:03;;;;;;;9.02;2.35;;;;;;;;;;5009745;28;20129;-63
2022/05/21 08:10:29;;;;;;;8.65;2.35;;;;;;;;;;5011618;28;20108;-63
2022/05/21 08:12:55;;;;;;;12.05;3.17;;;;;;;;;;5011659;28;20510;-63
2022/05/21 08:15:22;;;;;;;12.45;2.58;;;;;;;;;;5001650;28;20160;-63
2022/05/21 08:17:48;;;;;;;10.63;2.60;;;;;;;;;;4988295;28;20138;-64
2022/05/21 08:20:14;;;;;;;10.45;2.72;;;;;;;;;;4989934;28;20045;-63
2022/05/21 08:28:13;;;;;;;7.05;2.55;;;;;;;;;;5012672;28;20038;-63
2022/05/21 08:30:40;;;;;;;10.45;2.72;;;;;;;;;;5011426;28;20065;-64
2022/05/21 08:33:06;;;;;;;10.30;2.70;;;;;;;;;;5010608;28;20038;-63
2022/05/21 08:35:33;;;;;;;11.20;3.20;;;;;;;;;;5012980;28;20175;-63
2022/05/21 08:37:59;;;;;;;11.77;2.80;;;;;;;;;;5008676;28;20042;-63
2022/05/21 08:40:40;;;;;;;13.60;3.03;;;;;;;;;;5011529;28;20531;-63
2022/05/21 08:43:10;;;;;;;12.18;2.38;;;;;;;;;;5011801;28;20042;-63
2022/05/21 08:45:55;;;;;;;7.00;1.95;;;;;;;;;;5012698;28;20449;-63
2022/05/21 08:48:21;;;;;;;7.47;2.20;;;;;;;;;;5011132;28;20056;-63
2022/05/21 08:50:49;;;;;;;13.38;2.22;;;;;;;;;;5010453;28;20125;-63
2022/05/21 08:53:19;;;;;;;9.70;1.73;;;;;;;;;;5010363;28;20038;-63
2022/05/21 08:55:46;;;;;;;5.13;2.13;;;;;;;;;;5007675;28;20443;-62
2022/05/21 08:58:31;;;;;;;7.65;1.73;;;;;;;;;;5010583;28;20040;-64
2022/05/21 09:00:57;;;;;;;9.50;2.30;;;;;;;;;;5003663;28;20052;-63
2022/05/21 09:03:25;;;;;;;12.32;2.30;;;;;;;;;;5010647;28;20511;-63
2022/05/21 09:06:21;;;;;;;7.85;2.08;;;;;;;;;;5010225;28;20042;-64
2022/05/21 09:08:53;;;;;;;7.20;1.75;;;;;;;;;;5004131;28;20080;-64
2022/05/21 09:11:23;;;;;;;5.43;2.20;;;;;;;;;;5011046;28;20034;-64
2022/05/21 09:14:00;;;;;;;7.30;2.10;;;;;;;;;;5012513;28;20096;-64
2022/05/21 09:17:09;;;;;;;6.55;1.85;;;;;;;;;;5010708;28;20439;-64
2022/05/21 09:19:15;;;;;;;8.77;1.95;;;;;;;;;;5001642;28;20124;-64
2022/05/21 09:21:46;;;;;;;8.63;2.00;;;;;;;;;;5011560;28;20116;-64
2022/05/21 09:24:32;;;;;;;5.15;1.60;;;;;;;;;;5012725;28;20061;-65
2022/05/21 09:26:58;;;;;;;7.03;1.85;;;;;;;;;;5030804;22;20144;-62
2022/05/21 09:29:26;;;;;;;7.47;2.08;;;;;;;;;;5011736;28;20133;-62
2022/05/21 09:31:54;;;;;;;5.45;1.65;;;;;;;;;;5019880;28;20037;-62
2022/05/21 09:34:31;;;;;;;7.45;1.90;;;;;;;;;;5020411;28;20077;-63
2022/05/21 09:36:57;;;;;;;10.85;1.77;;;;;;;;;;5020266;28;20037;-62
2022/05/21 09:39:39;;;;;;;7.22;1.75;;;;;;;;;;5026382;28;20046;-62
2022/05/21 09:45:23;;;;;;;6.13;1.42;;;;;;;;;;5007188;28;20083;-62
2022/05/21 09:48:04;;;;;;;5.03;1.92;;;;;;;;;;5023347;28;20034;-62
2022/05/21 09:50:32;;;;;;;6.90;1.90;;;;;;;;;;5026323;28;20039;-62
2022/05/21 09:52:58;;;;;;;6.60;1.80;;;;;;;;;;5026659;28;20067;-62
2022/05/21 09:55:28;;;;;;;6.72;1.70;;;;;;;;;;5011021;28;20045;-62
2022/05/21 09:57:54;;;;;;;8.45;1.88;;;;;;;;;;5016721;28;20052;-63
2022/05/21 10:00:25;;;;;;;6.13;1.70;;;;;;;;;;5020777;28;20158;-62
2022/05/21 10:02:52;;;;;;;7.15;1.58;;;;;;;;;;5005124;28;20044;-62
2022/05/21 10:05:27;;;;;;;6.72;1.73;;;;;;;;;;5022091;28;20486;-60
2022/05/21 10:11:00;;;;;;;8.35;1.88;;;;;;;;;;5025712;28;20046;-60
2022/05/21 10:13:46;;;;;;;8.50;1.85;;;;;;;;;;5025397;28;20047;-59
2022/05/21 10:16:38;;;;;;;4.82;1.60;;;;;;;;;;5007977;28;20045;-60
2022/05/21 10:19:10;;;;;;;8.27;2.15;;;;;;;;;;4979537;28;20550;-62
2022/05/21 10:21:42;;;;;;;8.02;1.55;;;;;;;;;;5024336;28;20543;-62
2022/05/21 10:24:12;;;;;;;6.20;2.15;;;;;;;;;;5021501;28;20041;-62
2022/05/21 10:26:38;;;;;;;16.70;1.80;;;;;;;;;;5022596;28;20128;-62
2022/05/21 10:29:23;;;;;;;5.82;1.30;;;;;;;;;;5023295;28;20476;-62
2022/05/21 10:32:05;;;;;;;9.65;1.83;;;;;;;;;;5021667;28;20491;-62
2022/05/21 10:34:44;;;;;;;5.40;1.60;;;;;;;;;;5021905;28;20049;-62
2022/05/21 10:37:28;;;;;;;6.45;1.48;;;;;;;;;;5021380;28;20372;-62
2022/05/21 10:40:10;;;;;;;9.43;1.45;;;;;;;;;;5021951;28;20466;-62
2022/05/21 10:42:44;;;;;;;5.68;1.23;;;;;;;;;;5023667;28;20029;-60
2022/05/21 10:45:16;;;;;;;5.40;1.33;;;;;;;;;;5019590;28;20061;-62
2022/05/21 10:47:42;;;;;;;7.38;1.27;;;;;;;;;;5022392;28;20033;-63
2022/05/21 10:50:27;;;;;;;5.57;1.67;;;;;;;;;;5022874;28;20400;-62
2022/05/21 10:52:53;;;;;;;7.72;1.45;;;;;;;;;;5002849;28;20158;-62
2022/05/21 10:55:32;;;;;;;8.13;1.50;;;;;;;;;;5019535;28;20040;-63
2022/05/21 10:58:11;;;;;;;6.05;1.60;;;;;;;;;;5023136;28;20041;-60
2022/05/21 11:00:57;;;;;;;5.25;1.63;;;;;;;;;;5025069;28;20484;-60
2022/05/21 11:03:32;;;;;;;6.43;1.50;;;;;;;;;;5024074;28;20404;-60
2022/05/21 11:06:17;;;;;;;6.32;1.20;;;;;;;;;;5024673;28;20232;-60
2022/05/21 11:08:43;;;;;;;6.63;1.45;;;;;;;;;;5022722;28;20770;-60
2022/05/21 11:11:21;;;;;;;4.95;1.20;;;;;;;;;;5002490;28;20050;-60
2022/05/21 11:13:57;;;;;;;6.80;1.33;;;;;;;;;;5021654;28;20049;-60
2022/05/21 11:16:29;;;;;;;4.13;1.10;;;;;;;;;;5021739;28;20045;-60
2022/05/21 11:19:02;;;;;;;6.10;1.48;;;;;;;;;;5021381;28;20042;-61
2022/05/21 11:21:31;;;;;;;4.88;1.30;;;;;;;;;;5025594;28;20465;-61
2022/05/21 11:24:01;;;;;;;7.80;1.38;;;;;;;;;;5022245;28;20046;-61
2022/05/21 11:26:31;;;;;;;4.70;1.35;;;;;;;;;;5024671;28;20391;-62
2022/05/21 11:29:04;;;;;;;4.38;1.15;;;;;;;;;;5026517;28;20045;-61
2022/05/21 11:37:21;;;;;;;7.03;1.30;;;;;;;;;;5024689;28;20049;-61
2022/05/21 11:39:51;;;;;;;5.32;1.23;;;;;;;;;;5026027;28;20077;-62
2022/05/21 11:42:24;;;;;;;4.63;1.02;;;;;;;;;;5025553;28;20048;-61
2022/05/21 11:45:04;;;;;;;4.55;1.33;;;;;;;;;;5030717;28;20042;-62
2022/05/21 11:47:36;;;;;;;4.70;1.30;;;;;;;;;;5026266;28;20040;-61
2022/05/21 11:50:01;;;;;;;6.30;1.58;;;;;;;;;;5032125;28;20051;-61
2022/05/21 11:52:27;;;;;;;4.50;1.40;;;;;;;;;;5024001;28;20478;-62
2022/05/21 11:54:53;;;;;;;7.00;1.85;;;;;;;;;;5030502;28;20041;-61
2022/05/21 11:57:40;;;;;;;5.22;1.75;;;;;;;;;;5026155;28;20073;-61
2022/05/21 12:00:08;;;;;;;6.45;1.40;;;;;;;;;;5023335;28;20052;-60
2022/05/21 12:02:41;;;;;;;7.18;1.65;;;;;;;;;;5027649;28;20047;-61
2022/05/21 12:05:11;;;;;;;10.57;2.05;;;;;;;;;;5031933;28;20037;-61
2022/05/21 12:07:46;;;;;;;9.70;1.60;;;;;;;;;;5022165;28;20053;-61
2022/05/21 12:10:16;;;;;;;5.18;1.48;;;;;;;;;;5030680;28;20491;-61
2022/05/21 12:13:00;;;;;;;5.07;1.73;;;;;;;;;;5028023;28;20049;-61
2022/05/21 12:15:38;;;;;;;8.95;1.73;;;;;;;;;;5019707;28;20038;-61
2022/05/21 12:18:06;;;;;;;5.28;1.70;;;;;;;;;;5012254;28;20128;-61
2022/05/21 12:20:46;;;;;;;5.60;1.50;;;;;;;;;;5033770;28;20044;-62
2022/05/21 12:23:38;;;;;;;5.68;1.77;;;;;;;;;;5013977;28;20124;-61
2022/05/21 12:26:17;;;;;;;6.53;1.30;;;;;;;;;;5025272;28;20506;-61
2022/05/21 12:28:51;;;;;;;6.07;1.70;;;;;;;;;;5027193;28;20408;-62
2022/05/21 12:31:21;;;;;;;6.07;1.80;;;;;;;;;;5033904;28;20080;-61
2022/05/21 12:33:56;;;;;;;6.30;1.48;;;;;;;;;;5032327;28;20456;-62
2022/05/21 12:36:31;;;;;;;5.18;1.50;;;;;;;;;;5027391;28;20049;-61
2022/05/21 12:39:00;;;;;;;5.57;1.30;;;;;;;;;;5028822;28;20050;-61
2022/05/21 12:41:29;;;;;;;6.47;1.65;;;;;;;;;;5031822;28;20047;-61
2022/05/21 12:43:56;;;;;;;8.00;1.30;;;;;;;;;;5030039;28;20033;-61
2022/05/21 12:46:29;;;;;;;6.15;1.50;;;;;;;;;;5024653;28;20126;-62
2022/05/21 12:49:01;;;;;;;6.03;1.70;;;;;;;;;;5032464;28;20090;-62
2022/05/21 12:51:30;;;;;;;6.50;1.65;;;;;;;;;;5028622;28;20038;-61
2022/05/21 12:53:56;;;;;;;5.68;1.25;;;;;;;;;;5027935;28;20037;-61
2022/05/21 12:56:22;;;;;;;4.10;1.30;;;;;;;;;;5006928;28;20506;-62
2022/05/21 12:59:00;;;;;;;5.47;1.05;;;;;;;;;;5031108;28;20038;-62
2022/05/21 13:01:30;;;;;;;3.63;1.15;;;;;;;;;;5031674;28;20029;-61
2022/05/21 13:03:58;;;;;;;4.05;1.25;;;;;;;;;;5020101;28;20053;-61
2022/05/21 13:06:26;;;;;;;7.35;1.35;;;;;;;;;;5005889;28;20073;-61
2022/05/21 13:08:53;;;;;;;4.95;1.30;;;;;;;;;;5023142;28;20037;-61
2022/05/21 13:11:23;;;;;;;6.57;1.40;;;;;;;;;;5033104;28;20037;-61
2022/05/21 13:13:56;;;;;;;3.78;1.00;;;;;;;;;;5032331;28;20101;-62
2022/05/21 13:16:23;;;;;;;4.30;0.88;;;;;;;;;;5026606;28;20053;-61
2022/05/21 13:19:09;;;;;;;5.38;1.42;;;;;;;;;;5024613;28;20414;-61
2022/05/21 13:21:46;;;;;;;8.02;1.20;;;;;;;;;;5021076;28;20037;-61
2022/05/21 13:24:31;;;;;;;6.18;1.20;;;;;;;;;;5030933;28;20125;-61
2022/05/21 13:27:15;;;;;;;4.30;1.17;;;;;;;;;;5020315;28;20565;-61
2022/05/21 13:29:42;;;;;;;7.22;1.60;;;;;;;;;;5028184;28;20045;-61
2022/05/21 13:32:23;;;;;;;4.53;1.38;;;;;;;;;;5030240;28;20447;-61
2022/05/21 13:34:49;;;;;;;11.00;2.00;;;;;;;;;;5027928;28;20488;-61
2022/05/21 13:37:15;;;;;;;5.05;1.35;;;;;;;;;;5027814;28;20083;-61
2022/05/21 13:39:41;;;;;;;4.88;1.30;;;;;;;;;;5030648;28;20041;-61
2022/05/21 13:42:13;;;;;;;6.05;1.80;;;;;;;;;;5031065;28;20033;-61
2022/05/21 13:44:40;;;;;;;5.88;1.25;;;;;;;;;;5031461;28;20037;-61
2022/05/21 13:47:21;;;;;;;3.88;1.25;;;;;;;;;;5025882;28;20083;-61
2022/05/21 13:49:49;;;;;;;6.10;1.15;;;;;;;;;;5028870;28;20037;-61
2022/05/21 13:52:16;;;;;;;5.53;1.20;;;;;;;;;;5014348;28;20049;-61
2022/05/21 13:54:42;;;;;;;4.97;1.50;;;;;;;;;;5030497;28;20037;-61
2022/05/21 13:57:08;;;;;;;7.70;1.50;;;;;;;;;;5021152;28;20038;-61
2022/05/21 13:59:34;;;;;;;10.95;1.83;;;;;;;;;;5005490;28;20045;-61
2022/05/21 14:02:15;;;;;;;5.30;1.30;;;;;;;;;;5031805;28;20037;-61
2022/05/21 14:04:42;;;;;;;4.57;1.30;;;;;;;;;;5029383;28;20495;-61
2022/05/21 14:07:19;;;;;;;4.63;1.20;;;;;;;;;;5024170;28;20068;-61
2022/05/21 14:09:47;;;;;;;4.80;1.13;;;;;;;;;;5031380;28;20051;-62
2022/05/21 14:12:21;;;;;;;3.88;1.25;;;;;;;;;;5031291;28;20075;-61
2022/05/21 14:14:49;;;;;;;8.90;1.35;;;;;;;;;;5029115;28;20495;-61
2022/05/21 14:17:22;;;;;;;5.80;1.40;;;;;;;;;;5026437;28;20503;-61
2022/05/21 14:20:12;;;;;;;8.13;1.40;;;;;;;;;;5026520;28;20112;-61
2022/05/21 14:22:38;;;;;;;3.33;1.00;;;;;;;;;;5007369;28;20060;-61
2022/05/21 14:25:24;;;;;;;6.93;1.45;;;;;;;;;;5029942;28;20033;-61
2022/05/21 14:27:59;;;;;;;5.05;1.20;;;;;;;;;;5023853;28;20041;-61
2022/05/21 14:30:30;;;;;;;4.50;1.10;;;;;;;;;;5029173;28;20038;-61
2022/05/21 14:32:56;;;;;;;7.93;1.10;;;;;;;;;;5024780;28;20118;-61
2022/05/21 14:35:21;;;;;;;5.88;1.05;;;;;;;;;;5031486;28;20038;-61
2022/05/21 14:37:49;;;;;;;6.45;1.00;;;;;;;;;;5028162;28;20498;-61
2022/05/21 14:40:16;;;;;;;5.00;1.23;;;;;;;;;;5028474;28;20072;-61
2022/05/21 14:42:43;;;;;;;6.78;1.23;;;;;;;;;;5030611;28;20040;-61
2022/05/21 14:45:16;;;;;;;5.45;1.10;;;;;;;;;;5030394;28;20052;-61
2022/05/21 14:47:52;;;;;;;6.78;1.08;;;;;;;;;;5029685;28;20048;-61
2022/05/21 14:53:23;;;;;;;6.45;1.30;;;;;;;;;;5000194;28;20057;-61
2022/05/21 14:55:50;;;;;;;6.65;1.20;;;;;;;;;;5031163;28;20037;-61
2022/05/21 14:58:17;;;;;;;5.20;1.50;;;;;;;;;;5027443;28;20080;-61
2022/05/21 15:00:43;;;;;;;6.57;1.65;;;;;;;;;;5030421;28;20045;-61
2022/05/21 15:03:09;;;;;;;8.55;1.83;;;;;;;;;;5021961;28;20037;-61
2022/05/21 15:05:36;;;;;;;6.15;1.77;;;;;;;;;;5029446;28;20034;-60
2022/05/21 15:08:03;;;;;;;7.32;1.80;;;;;;;;;;5030772;28;20092;-61
2022/05/21 15:10:29;;;;;;;5.80;1.48;;;;;;;;;;5026962;28;20033;-61
2022/05/21 15:12:56;;;;;;;5.78;1.42;;;;;;;;;;5021832;28;20120;-61
2022/05/21 15:15:22;;;;;;;5.88;1.58;;;;;;;;;;5028963;28;20091;-61
2022/05/21 15:17:48;;;;;;;8.30;1.63;;;;;;;;;;5026597;28;20125;-61
2022/05/21 15:20:16;;;;;;;5.45;1.58;;;;;;;;;;5025245;28;20049;-61